sensor_id;sensor_type;location;lat;lon;timestamp;P1;durP1;ratioP1;P2;durP2;ratioP2
18364;SDS011;9309;52.126;11.616;2023-02-15T14:21:53;18.30;;;8.25;;
18364;SDS011;9309;52.126;11.616;2023-02-15T14:24:29;12.73;;;8.13;;
18364;SDS011;9309;52.126;11.616;2023-02-15T14:27:03;10.40;;;7.68;;
18364;SDS011;9309;52.126;11.616;2023-02-15T14:29:50;19.33;;;8.10;;
18364;SDS011;9309;52.126;11.616;2023-02-15T14:32:21;12.60;;;7.80;;
18364;SDS011;9309;52.126;11.616;2023-02-15T14:34:54;9.97;;;8.13;;
18364;SDS011;9309;52.126;11.616;2023-02-15T14:37:33;10.23;;;8.33;;
18364;SDS011;9309;52.126;11.616;2023-02-15T14:40:08;13.10;;;8.30;;
18364;SDS011;9309;52.126;11.616;2023-02-15T14:43:04;16.07;;;9.00;;
18364;SDS011;9309;52.126;11.616;2023-02-15T14:45:35;12.70;;;9.00;;
18364;SDS011;9309;52.126;11.616;2023-02-15T14:48:09;17.90;;;9.13;;
18364;SDS011;9309;52.126;11.616;2023-02-15T14:50:45;17.10;;;8.93;;
18364;SDS011;9309;52.126;11.616;2023-02-15T14:56:16;14.67;;;9.33;;
18364;SDS011;9309;52.126;11.616;2023-02-15T14:58:56;18.90;;;10.57;;
18364;SDS011;9309;52.126;11.616;2023-02-15T15:01:35;19.57;;;10.80;;
18364;SDS011;9309;52.126;11.616;2023-02-15T15:04:04;14.87;;;10.67;;
18364;SDS011;9309;52.126;11.616;2023-02-15T15:06:36;17.70;;;10.53;;
18364;SDS011;9309;52.126;11.616;2023-02-15T15:09:10;20.17;;;10.87;;
18364;SDS011;9309;52.126;11.616;2023-02-15T15:11:41;15.33;;;10.90;;
18364;SDS011;9309;52.126;11.616;2023-02-15T15:14:10;16.50;;;10.53;;
18364;SDS011;9309;52.126;11.616;2023-02-15T15:16:52;19.23;;;10.83;;
18364;SDS011;9309;52.126;11.616;2023-02-15T15:22:30;17.37;;;10.60;;
18364;SDS011;9309;52.126;11.616;2023-02-15T15:24:58;20.27;;;11.40;;
18364;SDS011;9309;52.126;11.616;2023-02-15T15:27:38;18.87;;;10.37;;
18364;SDS011;9309;52.126;11.616;2023-02-15T15:33:30;24.93;;;10.97;;
18364;SDS011;9309;52.126;11.616;2023-02-15T15:43:08;18.80;;;10.80;;
18364;SDS011;9309;52.126;11.616;2023-02-15T15:46:07;23.50;;;11.10;;
18364;SDS011;9309;52.126;11.616;2023-02-15T15:48:45;19.27;;;11.40;;
18364;SDS011;9309;52.126;11.616;2023-02-15T15:51:13;24.47;;;11.63;;
18364;SDS011;9309;52.126;11.616;2023-02-15T15:53:46;19.97;;;10.77;;
18364;SDS011;9309;52.126;11.616;2023-02-15T15:56:18;25.60;;;11.43;;
18364;SDS011;9309;52.126;11.616;2023-02-15T15:58:49;19.77;;;11.30;;
18364;SDS011;9309;52.126;11.616;2023-02-15T16:01:24;29.83;;;12.33;;
18364;SDS011;9309;52.126;11.616;2023-02-15T16:03:53;28.57;;;13.37;;
18364;SDS011;9309;52.126;11.616;2023-02-15T16:06:32;24.60;;;14.00;;
18364;SDS011;9309;52.126;11.616;2023-02-15T16:09:10;48.00;;;21.47;;
18364;SDS011;9309;52.126;11.616;2023-02-15T16:11:38;31.47;;;17.47;;
18364;SDS011;9309;52.126;11.616;2023-02-15T16:14:12;33.23;;;16.73;;
18364;SDS011;9309;52.126;11.616;2023-02-15T16:16:45;37.97;;;18.63;;
18364;SDS011;9309;52.126;11.616;2023-02-15T16:19:24;33.60;;;18.53;;
18364;SDS011;9309;52.126;11.616;2023-02-15T16:21:54;41.23;;;19.77;;
18364;SDS011;9309;52.126;11.616;2023-02-15T16:27:24;41.20;;;21.10;;
18364;SDS011;9309;52.126;11.616;2023-02-15T16:30:13;33.47;;;18.60;;
18364;SDS011;9309;52.126;11.616;2023-02-15T16:32:43;33.73;;;18.43;;
18364;SDS011;9309;52.126;11.616;2023-02-15T16:35:13;39.53;;;18.27;;
18364;SDS011;9309;52.126;11.616;2023-02-15T16:37:42;36.73;;;17.83;;
18364;SDS011;9309;52.126;11.616;2023-02-15T16:40:12;35.97;;;19.93;;
18364;SDS011;9309;52.126;11.616;2023-02-15T16:42:57;30.60;;;17.03;;
18364;SDS011;9309;52.126;11.616;2023-02-15T16:45:29;34.57;;;17.50;;
18364;SDS011;9309;52.126;11.616;2023-02-15T16:47:58;41.07;;;20.17;;
18364;SDS011;9309;52.126;11.616;2023-02-15T16:50:31;41.33;;;21.63;;
18364;SDS011;9309;52.126;11.616;2023-02-15T16:53:00;44.57;;;22.33;;
18364;SDS011;9309;52.126;11.616;2023-02-15T16:55:30;37.53;;;17.87;;
18364;SDS011;9309;52.126;11.616;2023-02-15T16:58:02;35.23;;;18.93;;
18364;SDS011;9309;52.126;11.616;2023-02-15T17:00:32;45.83;;;21.30;;
18364;SDS011;9309;52.126;11.616;2023-02-15T17:03:03;50.87;;;22.00;;
18364;SDS011;9309;52.126;11.616;2023-02-15T17:05:31;42.03;;;22.17;;
18364;SDS011;9309;52.126;11.616;2023-02-15T17:08:06;46.87;;;22.27;;
18364;SDS011;9309;52.126;11.616;2023-02-15T17:10:40;43.20;;;20.97;;
18364;SDS011;9309;52.126;11.616;2023-02-15T17:13:09;43.70;;;20.80;;
18364;SDS011;9309;52.126;11.616;2023-02-15T17:15:39;48.77;;;22.90;;
18364;SDS011;9309;52.126;11.616;2023-02-15T17:18:09;50.70;;;22.47;;
18364;SDS011;9309;52.126;11.616;2023-02-15T17:20:40;68.73;;;29.20;;
18364;SDS011;9309;52.126;11.616;2023-02-15T17:23:17;63.40;;;26.53;;
18364;SDS011;9309;52.126;11.616;2023-02-15T17:25:52;70.00;;;28.67;;
18364;SDS011;9309;52.126;11.616;2023-02-15T17:28:19;60.40;;;26.07;;
18364;SDS011;9309;52.126;11.616;2023-02-15T17:30:49;59.10;;;27.07;;
18364;SDS011;9309;52.126;11.616;2023-02-15T17:33:19;71.33;;;28.90;;
18364;SDS011;9309;52.126;11.616;2023-02-15T17:36:07;67.67;;;28.80;;
18364;SDS011;9309;52.126;11.616;2023-02-15T17:38:39;80.93;;;33.03;;
18364;SDS011;9309;52.126;11.616;2023-02-15T17:41:06;74.73;;;29.50;;
18364;SDS011;9309;52.126;11.616;2023-02-15T17:43:33;84.63;;;35.20;;
18364;SDS011;9309;52.126;11.616;2023-02-15T17:46:01;75.57;;;29.87;;
18364;SDS011;9309;52.126;11.616;2023-02-15T17:48:28;61.57;;;27.57;;
18364;SDS011;9309;52.126;11.616;2023-02-15T17:50:58;72.77;;;29.03;;
18364;SDS011;9309;52.126;11.616;2023-02-15T17:53:27;70.97;;;30.87;;
18364;SDS011;9309;52.126;11.616;2023-02-15T17:55:53;84.83;;;32.60;;
18364;SDS011;9309;52.126;11.616;2023-02-15T17:58:20;90.83;;;33.77;;
18364;SDS011;9309;52.126;11.616;2023-02-15T18:00:47;83.03;;;35.37;;
18364;SDS011;9309;52.126;11.616;2023-02-15T18:03:39;94.37;;;36.90;;
18364;SDS011;9309;52.126;11.616;2023-02-15T18:06:25;79.67;;;32.87;;
18364;SDS011;9309;52.126;11.616;2023-02-15T18:09:11;87.53;;;34.03;;
18364;SDS011;9309;52.126;11.616;2023-02-15T18:11:56;79.90;;;33.17;;
18364;SDS011;9309;52.126;11.616;2023-02-15T18:14:23;86.33;;;33.47;;
18364;SDS011;9309;52.126;11.616;2023-02-15T18:16:50;98.17;;;34.73;;
18364;SDS011;9309;52.126;11.616;2023-02-15T18:19:19;90.37;;;34.60;;
18364;SDS011;9309;52.126;11.616;2023-02-15T18:21:47;87.63;;;34.33;;
18364;SDS011;9309;52.126;11.616;2023-02-15T18:24:16;82.43;;;34.47;;
18364;SDS011;9309;52.126;11.616;2023-02-15T18:26:44;76.10;;;31.53;;
18364;SDS011;9309;52.126;11.616;2023-02-15T18:29:11;83.67;;;34.00;;
18364;SDS011;9309;52.126;11.616;2023-02-15T18:31:38;81.37;;;32.53;;
18364;SDS011;9309;52.126;11.616;2023-02-15T18:34:06;90.63;;;35.73;;
18364;SDS011;9309;52.126;11.616;2023-02-15T18:36:44;86.60;;;33.73;;
18364;SDS011;9309;52.126;11.616;2023-02-15T18:39:19;87.43;;;34.13;;
18364;SDS011;9309;52.126;11.616;2023-02-15T18:41:50;83.20;;;33.43;;
18364;SDS011;9309;52.126;11.616;2023-02-15T18:44:17;82.17;;;32.33;;
18364;SDS011;9309;52.126;11.616;2023-02-15T18:46:44;75.60;;;31.37;;
18364;SDS011;9309;52.126;11.616;2023-02-15T18:49:10;84.53;;;33.63;;
18364;SDS011;9309;52.126;11.616;2023-02-15T18:51:37;84.03;;;33.33;;
18364;SDS011;9309;52.126;11.616;2023-02-15T18:54:07;80.70;;;32.90;;
18364;SDS011;9309;52.126;11.616;2023-02-15T18:56:42;77.27;;;31.97;;
18364;SDS011;9309;52.126;11.616;2023-02-15T18:59:11;75.17;;;31.40;;
18364;SDS011;9309;52.126;11.616;2023-02-15T19:01:40;84.67;;;31.33;;
18364;SDS011;9309;52.126;11.616;2023-02-15T19:04:07;78.17;;;32.23;;
18364;SDS011;9309;52.126;11.616;2023-02-15T19:06:33;82.70;;;33.40;;
18364;SDS011;9309;52.126;11.616;2023-02-15T19:09:00;78.50;;;31.83;;
18364;SDS011;9309;52.126;11.616;2023-02-15T19:11:29;86.20;;;32.30;;
18364;SDS011;9309;52.126;11.616;2023-02-15T19:13:55;85.00;;;32.80;;
18364;SDS011;9309;52.126;11.616;2023-02-15T19:16:26;84.50;;;34.20;;
18364;SDS011;9309;52.126;11.616;2023-02-15T19:18:55;92.37;;;33.50;;
18364;SDS011;9309;52.126;11.616;2023-02-15T19:21:22;89.13;;;33.57;;
18364;SDS011;9309;52.126;11.616;2023-02-15T19:23:51;84.23;;;32.60;;
18364;SDS011;9309;52.126;11.616;2023-02-15T19:26:20;83.57;;;32.10;;
18364;SDS011;9309;52.126;11.616;2023-02-15T19:28:48;90.40;;;34.00;;
18364;SDS011;9309;52.126;11.616;2023-02-15T19:31:15;89.07;;;32.67;;
18364;SDS011;9309;52.126;11.616;2023-02-15T19:33:42;91.33;;;33.90;;
18364;SDS011;9309;52.126;11.616;2023-02-15T19:36:12;86.23;;;33.73;;
18364;SDS011;9309;52.126;11.616;2023-02-15T19:38:42;95.40;;;36.17;;
18364;SDS011;9309;52.126;11.616;2023-02-15T19:41:12;92.27;;;35.40;;
18364;SDS011;9309;52.126;11.616;2023-02-15T19:43:43;92.47;;;34.93;;
18364;SDS011;9309;52.126;11.616;2023-02-15T19:46:18;87.87;;;33.70;;
18364;SDS011;9309;52.126;11.616;2023-02-15T19:48:45;79.93;;;33.57;;
18364;SDS011;9309;52.126;11.616;2023-02-15T19:51:12;86.97;;;33.50;;
18364;SDS011;9309;52.126;11.616;2023-02-15T19:53:39;90.90;;;35.73;;
18364;SDS011;9309;52.126;11.616;2023-02-15T19:56:07;95.03;;;34.80;;
18364;SDS011;9309;52.126;11.616;2023-02-15T19:58:36;91.50;;;33.43;;
18364;SDS011;9309;52.126;11.616;2023-02-15T20:01:03;91.77;;;34.97;;
18364;SDS011;9309;52.126;11.616;2023-02-15T20:03:31;99.67;;;35.17;;
18364;SDS011;9309;52.126;11.616;2023-02-15T20:05:58;98.70;;;37.40;;
18364;SDS011;9309;52.126;11.616;2023-02-15T20:08:25;93.03;;;35.23;;
18364;SDS011;9309;52.126;11.616;2023-02-15T20:10:55;87.83;;;36.07;;
18364;SDS011;9309;52.126;11.616;2023-02-15T20:13:23;101.70;;;36.67;;
18364;SDS011;9309;52.126;11.616;2023-02-15T20:15:50;96.37;;;36.03;;
18364;SDS011;9309;52.126;11.616;2023-02-15T20:18:17;90.07;;;36.00;;
18364;SDS011;9309;52.126;11.616;2023-02-15T20:20:45;95.97;;;35.47;;
18364;SDS011;9309;52.126;11.616;2023-02-15T20:23:15;101.37;;;37.10;;
18364;SDS011;9309;52.126;11.616;2023-02-15T20:25:44;95.20;;;37.47;;
18364;SDS011;9309;52.126;11.616;2023-02-15T20:28:13;101.77;;;38.77;;
18364;SDS011;9309;52.126;11.616;2023-02-15T20:30:42;107.60;;;38.57;;
18364;SDS011;9309;52.126;11.616;2023-02-15T20:33:09;108.87;;;38.13;;
18364;SDS011;9309;52.126;11.616;2023-02-15T20:35:36;99.83;;;36.23;;
18364;SDS011;9309;52.126;11.616;2023-02-15T20:38:04;105.13;;;39.17;;
18364;SDS011;9309;52.126;11.616;2023-02-15T20:40:32;109.23;;;36.83;;
18364;SDS011;9309;52.126;11.616;2023-02-15T20:43:00;100.87;;;36.70;;
18364;SDS011;9309;52.126;11.616;2023-02-15T20:45:27;99.30;;;36.33;;
18364;SDS011;9309;52.126;11.616;2023-02-15T20:47:56;110.37;;;38.87;;
18364;SDS011;9309;52.126;11.616;2023-02-15T20:50:26;105.63;;;40.20;;
18364;SDS011;9309;52.126;11.616;2023-02-15T20:52:55;106.93;;;39.37;;
18364;SDS011;9309;52.126;11.616;2023-02-15T20:55:25;97.23;;;36.70;;
18364;SDS011;9309;52.126;11.616;2023-02-15T20:57:54;100.10;;;37.57;;
18364;SDS011;9309;52.126;11.616;2023-02-15T21:00:21;110.87;;;37.83;;
18364;SDS011;9309;52.126;11.616;2023-02-15T21:02:50;109.47;;;39.93;;
18364;SDS011;9309;52.126;11.616;2023-02-15T21:05:19;101.93;;;39.93;;
18364;SDS011;9309;52.126;11.616;2023-02-15T21:07:47;109.57;;;40.17;;
18364;SDS011;9309;52.126;11.616;2023-02-15T21:10:16;107.83;;;39.80;;
18364;SDS011;9309;52.126;11.616;2023-02-15T21:12:45;102.30;;;39.00;;
18364;SDS011;9309;52.126;11.616;2023-02-15T21:15:24;102.47;;;38.40;;
18364;SDS011;9309;52.126;11.616;2023-02-15T21:17:53;113.10;;;39.67;;
18364;SDS011;9309;52.126;11.616;2023-02-15T21:20:20;104.37;;;39.97;;
18364;SDS011;9309;52.126;11.616;2023-02-15T21:22:48;107.17;;;41.30;;
18364;SDS011;9309;52.126;11.616;2023-02-15T21:25:17;118.23;;;40.83;;
18364;SDS011;9309;52.126;11.616;2023-02-15T21:27:50;120.93;;;41.23;;
18364;SDS011;9309;52.126;11.616;2023-02-15T21:30:18;111.93;;;40.60;;
18364;SDS011;9309;52.126;11.616;2023-02-15T21:32:46;119.07;;;42.37;;
18364;SDS011;9309;52.126;11.616;2023-02-15T21:35:13;116.97;;;40.10;;
18364;SDS011;9309;52.126;11.616;2023-02-15T21:37:40;116.73;;;42.77;;
18364;SDS011;9309;52.126;11.616;2023-02-15T21:40:13;119.93;;;42.37;;
18364;SDS011;9309;52.126;11.616;2023-02-15T21:42:42;115.90;;;42.23;;
18364;SDS011;9309;52.126;11.616;2023-02-15T21:45:27;117.87;;;41.13;;
18364;SDS011;9309;52.126;11.616;2023-02-15T21:48:12;121.43;;;42.17;;
18364;SDS011;9309;52.126;11.616;2023-02-15T21:50:38;117.57;;;41.67;;
18364;SDS011;9309;52.126;11.616;2023-02-15T21:53:24;117.23;;;41.93;;
18364;SDS011;9309;52.126;11.616;2023-02-15T21:55:54;109.30;;;40.73;;
18364;SDS011;9309;52.126;11.616;2023-02-15T21:58:22;122.53;;;42.57;;
18364;SDS011;9309;52.126;11.616;2023-02-15T22:00:52;113.60;;;40.07;;
18364;SDS011;9309;52.126;11.616;2023-02-15T22:03:20;101.20;;;37.67;;
18364;SDS011;9309;52.126;11.616;2023-02-15T22:05:47;105.80;;;40.63;;
18364;SDS011;9309;52.126;11.616;2023-02-15T22:08:14;105.83;;;40.50;;
18364;SDS011;9309;52.126;11.616;2023-02-15T22:10:41;116.47;;;42.53;;
18364;SDS011;9309;52.126;11.616;2023-02-15T22:13:10;106.53;;;40.77;;
18364;SDS011;9309;52.126;11.616;2023-02-15T22:15:39;106.23;;;40.10;;
18364;SDS011;9309;52.126;11.616;2023-02-15T22:18:09;108.07;;;41.60;;
18364;SDS011;9309;52.126;11.616;2023-02-15T22:20:45;93.60;;;35.87;;
18364;SDS011;9309;52.126;11.616;2023-02-15T22:23:12;98.67;;;36.97;;
18364;SDS011;9309;52.126;11.616;2023-02-15T22:25:39;99.47;;;36.83;;
18364;SDS011;9309;52.126;11.616;2023-02-15T22:28:07;96.23;;;38.20;;
18364;SDS011;9309;52.126;11.616;2023-02-15T22:30:41;93.60;;;36.13;;
18364;SDS011;9309;52.126;11.616;2023-02-15T22:33:15;100.27;;;36.73;;
18364;SDS011;9309;52.126;11.616;2023-02-15T22:35:50;96.00;;;34.57;;
18364;SDS011;9309;52.126;11.616;2023-02-15T22:38:17;99.47;;;36.00;;
18364;SDS011;9309;52.126;11.616;2023-02-15T22:40:44;92.47;;;36.53;;
18364;SDS011;9309;52.126;11.616;2023-02-15T22:43:18;91.47;;;37.30;;
18364;SDS011;9309;52.126;11.616;2023-02-15T22:45:59;89.77;;;35.60;;
18364;SDS011;9309;52.126;11.616;2023-02-15T22:48:30;94.20;;;35.73;;
18364;SDS011;9309;52.126;11.616;2023-02-15T22:50:56;85.20;;;35.80;;
18364;SDS011;9309;52.126;11.616;2023-02-15T22:53:23;96.23;;;38.53;;
18364;SDS011;9309;52.126;11.616;2023-02-15T22:55:50;97.17;;;37.47;;
18364;SDS011;9309;52.126;11.616;2023-02-15T22:58:20;95.07;;;37.30;;
18364;SDS011;9309;52.126;11.616;2023-02-15T23:00:48;96.33;;;38.87;;
18364;SDS011;9309;52.126;11.616;2023-02-15T23:03:16;96.00;;;37.30;;
18364;SDS011;9309;52.126;11.616;2023-02-15T23:05:45;100.27;;;37.17;;
18364;SDS011;9309;52.126;11.616;2023-02-15T23:08:12;97.60;;;35.20;;
18364;SDS011;9309;52.126;11.616;2023-02-15T23:10:39;88.97;;;37.20;;
18364;SDS011;9309;52.126;11.616;2023-02-15T23:13:13;92.47;;;36.17;;
18364;SDS011;9309;52.126;11.616;2023-02-15T23:15:49;83.60;;;33.57;;
18364;SDS011;9309;52.126;11.616;2023-02-15T23:18:19;90.10;;;35.87;;
18364;SDS011;9309;52.126;11.616;2023-02-15T23:20:49;87.77;;;34.10;;
18364;SDS011;9309;52.126;11.616;2023-02-15T23:23:17;79.27;;;33.70;;
18364;SDS011;9309;52.126;11.616;2023-02-15T23:25:49;77.27;;;33.80;;
18364;SDS011;9309;52.126;11.616;2023-02-15T23:28:20;79.70;;;32.07;;
18364;SDS011;9309;52.126;11.616;2023-02-15T23:30:48;83.70;;;33.03;;
18364;SDS011;9309;52.126;11.616;2023-02-15T23:33:16;80.30;;;32.33;;
18364;SDS011;9309;52.126;11.616;2023-02-15T23:35:45;79.80;;;31.83;;
18364;SDS011;9309;52.126;11.616;2023-02-15T23:38:17;85.73;;;32.73;;
18364;SDS011;9309;52.126;11.616;2023-02-15T23:40:48;74.67;;;30.20;;
18364;SDS011;9309;52.126;11.616;2023-02-15T23:43:34;73.30;;;31.03;;
18364;SDS011;9309;52.126;11.616;2023-02-15T23:46:02;71.47;;;29.43;;
18364;SDS011;9309;52.126;11.616;2023-02-15T23:48:31;74.57;;;30.73;;
18364;SDS011;9309;52.126;11.616;2023-02-15T23:51:00;70.07;;;30.63;;
18364;SDS011;9309;52.126;11.616;2023-02-15T23:53:29;68.43;;;29.30;;
18364;SDS011;9309;52.126;11.616;2023-02-15T23:55:57;64.00;;;27.33;;
18364;SDS011;9309;52.126;11.616;2023-02-15T23:58:25;70.77;;;28.93;;
